sensor_id;sensor_type;location;lat;lon;timestamp;P1;durP1;ratioP1;P2;durP2;ratioP2
12635;SDS011;6383;50.830;7.210;2023-04-20T00:01:37;8.38;;;3.00;;
12635;SDS011;6383;50.830;7.210;2023-04-20T00:04:05;5.65;;;3.05;;
12635;SDS011;6383;50.830;7.210;2023-04-20T00:06:33;6.35;;;3.40;;
12635;SDS011;6383;50.830;7.210;2023-04-20T00:09:03;5.38;;;2.88;;
12635;SDS011;6383;50.830;7.210;2023-04-20T00:11:32;9.18;;;3.92;;
12635;SDS011;6383;50.830;7.210;2023-04-20T00:14:00;4.85;;;2.83;;
12635;SDS011;6383;50.830;7.210;2023-04-20T00:16:29;2.90;;;2.60;;
12635;SDS011;6383;50.830;7.210;2023-04-20T00:18:59;10.77;;;3.30;;
12635;SDS011;6383;50.830;7.210;2023-04-20T00:21:27;4.38;;;3.25;;
12635;SDS011;6383;50.830;7.210;2023-04-20T00:23:56;6.40;;;3.17;;
12635;SDS011;6383;50.830;7.210;2023-04-20T00:26:24;6.72;;;3.20;;
12635;SDS011;6383;50.830;7.210;2023-04-20T00:28:52;5.18;;;3.30;;
12635;SDS011;6383;50.830;7.210;2023-04-20T00:31:20;9.55;;;3.08;;
12635;SDS011;6383;50.830;7.210;2023-04-20T00:33:48;4.45;;;3.00;;
12635;SDS011;6383;50.830;7.210;2023-04-20T00:36:18;4.80;;;3.35;;
12635;SDS011;6383;50.830;7.210;2023-04-20T00:38:46;5.93;;;3.60;;
12635;SDS011;6383;50.830;7.210;2023-04-20T00:41:15;6.35;;;3.00;;
12635;SDS011;6383;50.830;7.210;2023-04-20T00:43:50;10.27;;;3.03;;
12635;SDS011;6383;50.830;7.210;2023-04-20T00:46:19;5.10;;;2.55;;
12635;SDS011;6383;50.830;7.210;2023-04-20T00:48:48;5.13;;;2.78;;
12635;SDS011;6383;50.830;7.210;2023-04-20T00:51:20;9.80;;;3.05;;
12635;SDS011;6383;50.830;7.210;2023-04-20T00:53:49;6.10;;;2.67;;
12635;SDS011;6383;50.830;7.210;2023-04-20T00:56:19;8.80;;;2.83;;
12635;SDS011;6383;50.830;7.210;2023-04-20T00:58:48;2.97;;;2.47;;
12635;SDS011;6383;50.830;7.210;2023-04-20T01:01:16;3.47;;;2.55;;
12635;SDS011;6383;50.830;7.210;2023-04-20T01:03:44;8.30;;;2.65;;
12635;SDS011;6383;50.830;7.210;2023-04-20T01:06:12;7.10;;;2.65;;
12635;SDS011;6383;50.830;7.210;2023-04-20T01:08:47;3.35;;;2.55;;
12635;SDS011;6383;50.830;7.210;2023-04-20T01:11:17;4.22;;;3.17;;
12635;SDS011;6383;50.830;7.210;2023-04-20T01:13:48;3.30;;;2.85;;
12635;SDS011;6383;50.830;7.210;2023-04-20T01:16:16;6.30;;;2.58;;
12635;SDS011;6383;50.830;7.210;2023-04-20T01:18:45;7.10;;;3.22;;
12635;SDS011;6383;50.830;7.210;2023-04-20T01:21:14;8.85;;;3.00;;
12635;SDS011;6383;50.830;7.210;2023-04-20T01:23:45;4.55;;;2.65;;
12635;SDS011;6383;50.830;7.210;2023-04-20T01:26:15;6.18;;;2.67;;
12635;SDS011;6383;50.830;7.210;2023-04-20T01:28:45;3.72;;;2.67;;
12635;SDS011;6383;50.830;7.210;2023-04-20T01:31:14;7.53;;;3.33;;
12635;SDS011;6383;50.830;7.210;2023-04-20T01:33:42;13.10;;;5.32;;
12635;SDS011;6383;50.830;7.210;2023-04-20T01:36:11;6.45;;;3.58;;
12635;SDS011;6383;50.830;7.210;2023-04-20T01:38:39;5.85;;;3.83;;
12635;SDS011;6383;50.830;7.210;2023-04-20T01:41:08;5.13;;;3.47;;
12635;SDS011;6383;50.830;7.210;2023-04-20T01:43:37;5.57;;;2.90;;
12635;SDS011;6383;50.830;7.210;2023-04-20T01:46:05;8.75;;;3.17;;
12635;SDS011;6383;50.830;7.210;2023-04-20T01:48:34;10.07;;;3.65;;
12635;SDS011;6383;50.830;7.210;2023-04-20T01:51:02;4.60;;;3.50;;
12635;SDS011;6383;50.830;7.210;2023-04-20T01:53:30;7.07;;;3.03;;
12635;SDS011;6383;50.830;7.210;2023-04-20T01:55:59;7.78;;;3.50;;
12635;SDS011;6383;50.830;7.210;2023-04-20T01:58:27;3.70;;;2.85;;
12635;SDS011;6383;50.830;7.210;2023-04-20T02:00:56;8.95;;;3.65;;
12635;SDS011;6383;50.830;7.210;2023-04-20T02:03:25;13.18;;;3.20;;
12635;SDS011;6383;50.830;7.210;2023-04-20T02:05:52;7.13;;;3.25;;
12635;SDS011;6383;50.830;7.210;2023-04-20T02:08:20;3.47;;;3.17;;
12635;SDS011;6383;50.830;7.210;2023-04-20T02:10:49;5.28;;;3.17;;
12635;SDS011;6383;50.830;7.210;2023-04-20T02:15:47;7.30;;;4.45;;
12635;SDS011;6383;50.830;7.210;2023-04-20T02:18:16;6.03;;;3.72;;
12635;SDS011;6383;50.830;7.210;2023-04-20T02:20:44;10.02;;;3.42;;
12635;SDS011;6383;50.830;7.210;2023-04-20T02:23:12;7.57;;;3.40;;
12635;SDS011;6383;50.830;7.210;2023-04-20T02:25:41;9.05;;;3.78;;
12635;SDS011;6383;50.830;7.210;2023-04-20T02:28:11;8.88;;;3.83;;
12635;SDS011;6383;50.830;7.210;2023-04-20T02:30:38;8.07;;;4.15;;
12635;SDS011;6383;50.830;7.210;2023-04-20T02:33:09;5.30;;;4.10;;
12635;SDS011;6383;50.830;7.210;2023-04-20T02:35:36;5.25;;;3.30;;
12635;SDS011;6383;50.830;7.210;2023-04-20T02:38:05;7.75;;;3.80;;
12635;SDS011;6383;50.830;7.210;2023-04-20T02:40:33;4.10;;;3.70;;
12635;SDS011;6383;50.830;7.210;2023-04-20T02:43:01;10.45;;;3.42;;
12635;SDS011;6383;50.830;7.210;2023-04-20T02:45:31;6.13;;;4.03;;
12635;SDS011;6383;50.830;7.210;2023-04-20T02:47:59;11.60;;;3.70;;
12635;SDS011;6383;50.830;7.210;2023-04-20T02:50:29;7.05;;;4.40;;
12635;SDS011;6383;50.830;7.210;2023-04-20T02:52:58;9.23;;;3.78;;
12635;SDS011;6383;50.830;7.210;2023-04-20T02:55:27;5.38;;;4.13;;
12635;SDS011;6383;50.830;7.210;2023-04-20T02:57:56;6.85;;;4.57;;
12635;SDS011;6383;50.830;7.210;2023-04-20T03:00:25;6.90;;;4.10;;
12635;SDS011;6383;50.830;7.210;2023-04-20T03:07:50;6.82;;;4.05;;
12635;SDS011;6383;50.830;7.210;2023-04-20T03:10:19;5.45;;;4.18;;
12635;SDS011;6383;50.830;7.210;2023-04-20T03:12:48;9.07;;;4.15;;
12635;SDS011;6383;50.830;7.210;2023-04-20T03:15:17;6.40;;;3.92;;
12635;SDS011;6383;50.830;7.210;2023-04-20T03:17:50;10.65;;;4.38;;
12635;SDS011;6383;50.830;7.210;2023-04-20T03:20:20;5.65;;;3.42;;
12635;SDS011;6383;50.830;7.210;2023-04-20T03:22:50;7.85;;;3.83;;
12635;SDS011;6383;50.830;7.210;2023-04-20T03:25:19;7.18;;;3.83;;
12635;SDS011;6383;50.830;7.210;2023-04-20T03:27:47;9.27;;;4.00;;
12635;SDS011;6383;50.830;7.210;2023-04-20T03:30:16;8.50;;;4.10;;
12635;SDS011;6383;50.830;7.210;2023-04-20T03:32:45;11.50;;;3.95;;
12635;SDS011;6383;50.830;7.210;2023-04-20T03:35:13;8.38;;;3.63;;
12635;SDS011;6383;50.830;7.210;2023-04-20T03:37:42;6.18;;;3.83;;
12635;SDS011;6383;50.830;7.210;2023-04-20T03:40:12;5.95;;;3.58;;
12635;SDS011;6383;50.830;7.210;2023-04-20T03:42:40;6.00;;;3.53;;
12635;SDS011;6383;50.830;7.210;2023-04-20T03:45:09;9.35;;;3.83;;
12635;SDS011;6383;50.830;7.210;2023-04-20T03:47:39;7.03;;;4.22;;
12635;SDS011;6383;50.830;7.210;2023-04-20T03:50:06;6.53;;;3.65;;
12635;SDS011;6383;50.830;7.210;2023-04-20T03:52:36;4.05;;;3.40;;
12635;SDS011;6383;50.830;7.210;2023-04-20T03:55:04;6.63;;;4.32;;
12635;SDS011;6383;50.830;7.210;2023-04-20T03:57:36;6.00;;;4.13;;
12635;SDS011;6383;50.830;7.210;2023-04-20T04:00:04;6.38;;;3.88;;
12635;SDS011;6383;50.830;7.210;2023-04-20T04:02:33;7.18;;;4.38;;
12635;SDS011;6383;50.830;7.210;2023-04-20T04:05:01;6.85;;;4.38;;
12635;SDS011;6383;50.830;7.210;2023-04-20T04:07:29;5.43;;;4.70;;
12635;SDS011;6383;50.830;7.210;2023-04-20T04:09:57;5.20;;;4.15;;
12635;SDS011;6383;50.830;7.210;2023-04-20T04:12:24;6.10;;;4.38;;
12635;SDS011;6383;50.830;7.210;2023-04-20T04:14:53;5.10;;;4.50;;
12635;SDS011;6383;50.830;7.210;2023-04-20T04:17:24;9.23;;;4.22;;
12635;SDS011;6383;50.830;7.210;2023-04-20T04:22:21;4.18;;;3.80;;
12635;SDS011;6383;50.830;7.210;2023-04-20T04:24:50;7.80;;;4.53;;
12635;SDS011;6383;50.830;7.210;2023-04-20T04:27:19;6.55;;;4.65;;
12635;SDS011;6383;50.830;7.210;2023-04-20T04:29:47;9.23;;;4.30;;
12635;SDS011;6383;50.830;7.210;2023-04-20T04:32:17;8.45;;;4.43;;
12635;SDS011;6383;50.830;7.210;2023-04-20T04:34:46;6.43;;;4.85;;
12635;SDS011;6383;50.830;7.210;2023-04-20T04:37:14;5.03;;;4.50;;
12635;SDS011;6383;50.830;7.210;2023-04-20T04:39:44;8.00;;;4.97;;
12635;SDS011;6383;50.830;7.210;2023-04-20T04:42:13;9.13;;;4.97;;
12635;SDS011;6383;50.830;7.210;2023-04-20T04:44:41;6.28;;;4.15;;
12635;SDS011;6383;50.830;7.210;2023-04-20T04:47:11;7.10;;;5.00;;
12635;SDS011;6383;50.830;7.210;2023-04-20T04:49:42;10.23;;;4.85;;
12635;SDS011;6383;50.830;7.210;2023-04-20T04:52:12;9.18;;;5.07;;
12635;SDS011;6383;50.830;7.210;2023-04-20T04:54:41;9.25;;;5.72;;
12635;SDS011;6383;50.830;7.210;2023-04-20T04:57:10;6.65;;;4.93;;
12635;SDS011;6383;50.830;7.210;2023-04-20T04:59:39;9.07;;;5.47;;
12635;SDS011;6383;50.830;7.210;2023-04-20T05:02:08;8.73;;;5.65;;
12635;SDS011;6383;50.830;7.210;2023-04-20T05:04:37;9.15;;;5.90;;
12635;SDS011;6383;50.830;7.210;2023-04-20T05:07:08;9.02;;;5.38;;
12635;SDS011;6383;50.830;7.210;2023-04-20T05:09:37;8.82;;;5.90;;
12635;SDS011;6383;50.830;7.210;2023-04-20T05:12:06;7.43;;;4.95;;
12635;SDS011;6383;50.830;7.210;2023-04-20T05:14:36;8.50;;;4.90;;
12635;SDS011;6383;50.830;7.210;2023-04-20T05:17:04;7.15;;;5.43;;
12635;SDS011;6383;50.830;7.210;2023-04-20T05:19:31;10.27;;;5.65;;
12635;SDS011;6383;50.830;7.210;2023-04-20T05:21:59;11.60;;;5.70;;
12635;SDS011;6383;50.830;7.210;2023-04-20T05:24:28;11.02;;;5.80;;
12635;SDS011;6383;50.830;7.210;2023-04-20T05:26:57;14.05;;;6.03;;
12635;SDS011;6383;50.830;7.210;2023-04-20T05:29:25;9.85;;;5.47;;
12635;SDS011;6383;50.830;7.210;2023-04-20T05:31:54;8.80;;;5.82;;
12635;SDS011;6383;50.830;7.210;2023-04-20T05:34:23;6.65;;;5.00;;
12635;SDS011;6383;50.830;7.210;2023-04-20T05:36:51;9.05;;;5.35;;
12635;SDS011;6383;50.830;7.210;2023-04-20T05:39:20;7.72;;;6.18;;
12635;SDS011;6383;50.830;7.210;2023-04-20T05:41:51;6.95;;;4.97;;
12635;SDS011;6383;50.830;7.210;2023-04-20T05:44:19;5.82;;;4.72;;
12635;SDS011;6383;50.830;7.210;2023-04-20T05:46:48;8.85;;;4.82;;
12635;SDS011;6383;50.830;7.210;2023-04-20T05:49:17;9.65;;;5.22;;
12635;SDS011;6383;50.830;7.210;2023-04-20T05:51:46;7.72;;;5.03;;
12635;SDS011;6383;50.830;7.210;2023-04-20T05:54:15;6.65;;;4.47;;
12635;SDS011;6383;50.830;7.210;2023-04-20T05:56:54;11.65;;;5.72;;
12635;SDS011;6383;50.830;7.210;2023-04-20T05:59:30;5.47;;;4.47;;
12635;SDS011;6383;50.830;7.210;2023-04-20T06:02:00;8.63;;;4.93;;
12635;SDS011;6383;50.830;7.210;2023-04-20T06:04:27;10.52;;;4.97;;
12635;SDS011;6383;50.830;7.210;2023-04-20T06:06:56;7.85;;;5.10;;
12635;SDS011;6383;50.830;7.210;2023-04-20T06:09:25;4.95;;;4.45;;
12635;SDS011;6383;50.830;7.210;2023-04-20T06:11:56;10.38;;;5.78;;
12635;SDS011;6383;50.830;7.210;2023-04-20T06:14:25;9.10;;;4.10;;
12635;SDS011;6383;50.830;7.210;2023-04-20T06:17:00;5.32;;;4.32;;
12635;SDS011;6383;50.830;7.210;2023-04-20T06:19:29;6.00;;;4.55;;
12635;SDS011;6383;50.830;7.210;2023-04-20T06:21:59;5.72;;;4.85;;
12635;SDS011;6383;50.830;7.210;2023-04-20T06:24:28;5.57;;;4.53;;
12635;SDS011;6383;50.830;7.210;2023-04-20T06:26:57;9.45;;;4.80;;
12635;SDS011;6383;50.830;7.210;2023-04-20T06:29:24;6.55;;;4.80;;
12635;SDS011;6383;50.830;7.210;2023-04-20T06:31:52;7.80;;;4.82;;
12635;SDS011;6383;50.830;7.210;2023-04-20T06:34:20;6.32;;;4.55;;
12635;SDS011;6383;50.830;7.210;2023-04-20T06:36:49;5.70;;;4.28;;
12635;SDS011;6383;50.830;7.210;2023-04-20T06:39:18;5.22;;;4.07;;
12635;SDS011;6383;50.830;7.210;2023-04-20T06:41:47;5.85;;;4.60;;
12635;SDS011;6383;50.830;7.210;2023-04-20T06:44:18;5.03;;;4.55;;
12635;SDS011;6383;50.830;7.210;2023-04-20T06:46:49;7.53;;;4.38;;
12635;SDS011;6383;50.830;7.210;2023-04-20T06:49:18;4.03;;;3.72;;
12635;SDS011;6383;50.830;7.210;2023-04-20T06:51:45;7.10;;;4.78;;
12635;SDS011;6383;50.830;7.210;2023-04-20T06:54:14;4.93;;;4.43;;
12635;SDS011;6383;50.830;7.210;2023-04-20T06:56:44;5.07;;;4.38;;
12635;SDS011;6383;50.830;7.210;2023-04-20T06:59:12;5.18;;;4.75;;
12635;SDS011;6383;50.830;7.210;2023-04-20T07:01:44;4.82;;;4.10;;
12635;SDS011;6383;50.830;7.210;2023-04-20T07:04:13;9.75;;;4.47;;
12635;SDS011;6383;50.830;7.210;2023-04-20T07:06:40;6.47;;;5.38;;
12635;SDS011;6383;50.830;7.210;2023-04-20T07:09:09;7.10;;;4.90;;
12635;SDS011;6383;50.830;7.210;2023-04-20T07:11:38;5.90;;;4.43;;
12635;SDS011;6383;50.830;7.210;2023-04-20T07:14:07;5.28;;;4.07;;
12635;SDS011;6383;50.830;7.210;2023-04-20T07:16:36;5.25;;;4.78;;
12635;SDS011;6383;50.830;7.210;2023-04-20T07:19:06;5.75;;;4.88;;
12635;SDS011;6383;50.830;7.210;2023-04-20T07:21:35;5.45;;;4.07;;
12635;SDS011;6383;50.830;7.210;2023-04-20T07:24:05;5.03;;;4.53;;
12635;SDS011;6383;50.830;7.210;2023-04-20T07:26:33;5.15;;;4.75;;
12635;SDS011;6383;50.830;7.210;2023-04-20T07:29:00;4.32;;;3.92;;
12635;SDS011;6383;50.830;7.210;2023-04-20T07:31:28;4.18;;;3.80;;
12635;SDS011;6383;50.830;7.210;2023-04-20T07:33:58;4.80;;;4.30;;
12635;SDS011;6383;50.830;7.210;2023-04-20T07:36:28;4.50;;;3.83;;
12635;SDS011;6383;50.830;7.210;2023-04-20T07:38:56;4.05;;;3.58;;
12635;SDS011;6383;50.830;7.210;2023-04-20T07:41:25;4.38;;;3.85;;
12635;SDS011;6383;50.830;7.210;2023-04-20T07:43:54;4.38;;;3.90;;
12635;SDS011;6383;50.830;7.210;2023-04-20T07:46:23;5.15;;;3.90;;
12635;SDS011;6383;50.830;7.210;2023-04-20T07:48:53;5.18;;;4.32;;
12635;SDS011;6383;50.830;7.210;2023-04-20T07:51:22;3.83;;;3.53;;
12635;SDS011;6383;50.830;7.210;2023-04-20T07:53:52;3.25;;;3.05;;
12635;SDS011;6383;50.830;7.210;2023-04-20T07:56:20;3.33;;;3.13;;
12635;SDS011;6383;50.830;7.210;2023-04-20T07:58:51;2.85;;;2.72;;
12635;SDS011;6383;50.830;7.210;2023-04-20T08:01:22;2.92;;;2.72;;
12635;SDS011;6383;50.830;7.210;2023-04-20T08:03:51;3.13;;;2.92;;
12635;SDS011;6383;50.830;7.210;2023-04-20T08:06:20;3.60;;;2.78;;
12635;SDS011;6383;50.830;7.210;2023-04-20T08:08:48;3.90;;;3.05;;
12635;SDS011;6383;50.830;7.210;2023-04-20T08:11:19;2.85;;;2.55;;
12635;SDS011;6383;50.830;7.210;2023-04-20T08:13:48;2.90;;;2.70;;
12635;SDS011;6383;50.830;7.210;2023-04-20T08:16:17;2.97;;;2.78;;
12635;SDS011;6383;50.830;7.210;2023-04-20T08:18:46;3.42;;;3.22;;
12635;SDS011;6383;50.830;7.210;2023-04-20T08:21:15;3.42;;;3.03;;
12635;SDS011;6383;50.830;7.210;2023-04-20T08:23:45;2.60;;;2.40;;
12635;SDS011;6383;50.830;7.210;2023-04-20T08:26:15;3.78;;;2.80;;
12635;SDS011;6383;50.830;7.210;2023-04-20T08:28:45;2.75;;;2.55;;
12635;SDS011;6383;50.830;7.210;2023-04-20T08:31:14;3.10;;;2.40;;
12635;SDS011;6383;50.830;7.210;2023-04-20T08:33:44;2.28;;;2.17;;
12635;SDS011;6383;50.830;7.210;2023-04-20T08:36:13;2.53;;;2.33;;
12635;SDS011;6383;50.830;7.210;2023-04-20T08:38:41;2.45;;;2.28;;
12635;SDS011;6383;50.830;7.210;2023-04-20T08:41:10;2.78;;;2.00;;
12635;SDS011;6383;50.830;7.210;2023-04-20T08:43:40;1.85;;;1.75;;
12635;SDS011;6383;50.830;7.210;2023-04-20T08:46:10;1.90;;;1.70;;
12635;SDS011;6383;50.830;7.210;2023-04-20T08:48:41;1.55;;;1.55;;
12635;SDS011;6383;50.830;7.210;2023-04-20T08:51:14;1.80;;;1.70;;
12635;SDS011;6383;50.830;7.210;2023-04-20T08:53:43;1.83;;;1.70;;
12635;SDS011;6383;50.830;7.210;2023-04-20T08:56:13;1.75;;;1.65;;
12635;SDS011;6383;50.830;7.210;2023-04-20T08:58:41;1.80;;;1.70;;
12635;SDS011;6383;50.830;7.210;2023-04-20T09:01:09;1.40;;;1.35;;
12635;SDS011;6383;50.830;7.210;2023-04-20T09:03:40;2.00;;;1.80;;
12635;SDS011;6383;50.830;7.210;2023-04-20T09:06:13;1.70;;;1.60;;
12635;SDS011;6383;50.830;7.210;2023-04-20T09:08:43;1.65;;;1.55;;
12635;SDS011;6383;50.830;7.210;2023-04-20T09:11:19;2.03;;;1.92;;
12635;SDS011;6383;50.830;7.210;2023-04-20T09:13:57;1.35;;;1.35;;
12635;SDS011;6383;50.830;7.210;2023-04-20T09:16:29;1.63;;;1.52;;
12635;SDS011;6383;50.830;7.210;2023-04-20T09:18:58;1.65;;;1.30;;
12635;SDS011;6383;50.830;7.210;2023-04-20T09:21:27;1.08;;;1.08;;
12635;SDS011;6383;50.830;7.210;2023-04-20T09:23:57;0.93;;;0.93;;
12635;SDS011;6383;50.830;7.210;2023-04-20T09:26:30;1.00;;;1.00;;
12635;SDS011;6383;50.830;7.210;2023-04-20T09:29:00;0.90;;;0.90;;
12635;SDS011;6383;50.830;7.210;2023-04-20T09:31:31;1.88;;;0.93;;
12635;SDS011;6383;50.830;7.210;2023-04-20T09:34:03;1.25;;;1.23;;
12635;SDS011;6383;50.830;7.210;2023-04-20T09:36:35;2.10;;;1.00;;
12635;SDS011;6383;50.830;7.210;2023-04-20T09:39:07;1.20;;;1.20;;
12635;SDS011;6383;50.830;7.210;2023-04-20T09:41:37;0.90;;;0.90;;
12635;SDS011;6383;50.830;7.210;2023-04-20T09:44:07;2.08;;;0.65;;
12635;SDS011;6383;50.830;7.210;2023-04-20T09:46:39;1.67;;;0.93;;
12635;SDS011;6383;50.830;7.210;2023-04-20T09:49:09;0.88;;;0.88;;
12635;SDS011;6383;50.830;7.210;2023-04-20T09:51:41;1.70;;;1.58;;
12635;SDS011;6383;50.830;7.210;2023-04-20T09:54:12;0.85;;;0.85;;
12635;SDS011;6383;50.830;7.210;2023-04-20T09:56:40;13.98;;;11.70;;
12635;SDS011;6383;50.830;7.210;2023-04-20T09:59:10;8.38;;;6.82;;
12635;SDS011;6383;50.830;7.210;2023-04-20T10:01:41;2.10;;;1.90;;
12635;SDS011;6383;50.830;7.210;2023-04-20T10:04:10;1.00;;;1.00;;
12635;SDS011;6383;50.830;7.210;2023-04-20T10:06:39;5.90;;;1.92;;
12635;SDS011;6383;50.830;7.210;2023-04-20T10:09:20;2.67;;;0.98;;
12635;SDS011;6383;50.830;7.210;2023-04-20T10:11:49;2.50;;;2.30;;
12635;SDS011;6383;50.830;7.210;2023-04-20T10:14:16;1.23;;;1.10;;
12635;SDS011;6383;50.830;7.210;2023-04-20T10:16:57;0.75;;;0.75;;
12635;SDS011;6383;50.830;7.210;2023-04-20T10:19:36;0.85;;;0.70;;
12635;SDS011;6383;50.830;7.210;2023-04-20T10:22:07;0.50;;;0.50;;
12635;SDS011;6383;50.830;7.210;2023-04-20T10:24:37;0.50;;;0.50;;
12635;SDS011;6383;50.830;7.210;2023-04-20T10:27:14;1.08;;;0.77;;
12635;SDS011;6383;50.830;7.210;2023-04-20T10:29:45;0.70;;;0.70;;
12635;SDS011;6383;50.830;7.210;2023-04-20T10:32:22;0.60;;;0.60;;
12635;SDS011;6383;50.830;7.210;2023-04-20T10:34:59;0.60;;;0.60;;
12635;SDS011;6383;50.830;7.210;2023-04-20T10:37:28;0.50;;;0.50;;
12635;SDS011;6383;50.830;7.210;2023-04-20T10:39:58;0.55;;;0.55;;
12635;SDS011;6383;50.830;7.210;2023-04-20T10:42:28;0.60;;;0.60;;
12635;SDS011;6383;50.830;7.210;2023-04-20T10:44:55;0.85;;;0.80;;
12635;SDS011;6383;50.830;7.210;2023-04-20T10:47:28;0.70;;;0.70;;
12635;SDS011;6383;50.830;7.210;2023-04-20T10:50:08;0.70;;;0.70;;
12635;SDS011;6383;50.830;7.210;2023-04-20T10:52:39;0.63;;;0.63;;
12635;SDS011;6383;50.830;7.210;2023-04-20T10:55:18;0.95;;;0.93;;
12635;SDS011;6383;50.830;7.210;2023-04-20T10:57:48;1.30;;;1.15;;
12635;SDS011;6383;50.830;7.210;2023-04-20T11:00:18;1.17;;;1.10;;
12635;SDS011;6383;50.830;7.210;2023-04-20T11:02:50;1.10;;;1.10;;
12635;SDS011;6383;50.830;7.210;2023-04-20T11:05:20;2.00;;;0.98;;
12635;SDS011;6383;50.830;7.210;2023-04-20T11:07:50;1.55;;;1.17;;
12635;SDS011;6383;50.830;7.210;2023-04-20T11:10:20;1.48;;;1.00;;
12635;SDS011;6383;50.830;7.210;2023-04-20T11:12:51;1.35;;;1.27;;
12635;SDS011;6383;50.830;7.210;2023-04-20T11:18:06;0.80;;;0.80;;
12635;SDS011;6383;50.830;7.210;2023-04-20T11:20:34;1.60;;;1.50;;
12635;SDS011;6383;50.830;7.210;2023-04-20T11:23:03;2.72;;;1.50;;
12635;SDS011;6383;50.830;7.210;2023-04-20T11:25:32;1.67;;;1.58;;
12635;SDS011;6383;50.830;7.210;2023-04-20T11:28:03;1.92;;;1.80;;
12635;SDS011;6383;50.830;7.210;2023-04-20T11:30:36;1.92;;;1.80;;
12635;SDS011;6383;50.830;7.210;2023-04-20T11:35:35;1.80;;;1.50;;
12635;SDS011;6383;50.830;7.210;2023-04-20T11:38:04;2.10;;;2.00;;
12635;SDS011;6383;50.830;7.210;2023-04-20T11:40:32;2.22;;;2.03;;
12635;SDS011;6383;50.830;7.210;2023-04-20T11:43:02;1.63;;;1.50;;
12635;SDS011;6383;50.830;7.210;2023-04-20T11:45:30;1.95;;;1.85;;
12635;SDS011;6383;50.830;7.210;2023-04-20T11:47:59;2.35;;;2.25;;
12635;SDS011;6383;50.830;7.210;2023-04-20T11:50:30;7.40;;;6.70;;
12635;SDS011;6383;50.830;7.210;2023-04-20T11:52:59;1.85;;;1.75;;
12635;SDS011;6383;50.830;7.210;2023-04-20T11:55:28;2.22;;;2.13;;
12635;SDS011;6383;50.830;7.210;2023-04-20T11:57:55;2.22;;;2.00;;
12635;SDS011;6383;50.830;7.210;2023-04-20T12:00:25;1.90;;;1.80;;
12635;SDS011;6383;50.830;7.210;2023-04-20T12:02:54;8.30;;;4.93;;
12635;SDS011;6383;50.830;7.210;2023-04-20T12:05:21;2.47;;;2.30;;
12635;SDS011;6383;50.830;7.210;2023-04-20T12:07:51;2.55;;;2.35;;
12635;SDS011;6383;50.830;7.210;2023-04-20T12:10:20;5.93;;;4.15;;
12635;SDS011;6383;50.830;7.210;2023-04-20T12:12:50;4.93;;;3.47;;
12635;SDS011;6383;50.830;7.210;2023-04-20T12:15:20;4.65;;;3.55;;
12635;SDS011;6383;50.830;7.210;2023-04-20T12:17:48;4.60;;;4.20;;
12635;SDS011;6383;50.830;7.210;2023-04-20T12:20:18;5.22;;;3.97;;
12635;SDS011;6383;50.830;7.210;2023-04-20T12:22:47;6.93;;;4.13;;
12635;SDS011;6383;50.830;7.210;2023-04-20T12:25:17;4.40;;;4.00;;
12635;SDS011;6383;50.830;7.210;2023-04-20T12:27:46;8.20;;;4.28;;
12635;SDS011;6383;50.830;7.210;2023-04-20T12:30:15;5.80;;;4.63;;
12635;SDS011;6383;50.830;7.210;2023-04-20T12:32:44;7.07;;;4.25;;
12635;SDS011;6383;50.830;7.210;2023-04-20T12:35:11;6.10;;;4.32;;
12635;SDS011;6383;50.830;7.210;2023-04-20T12:37:40;5.75;;;4.05;;
12635;SDS011;6383;50.830;7.210;2023-04-20T12:40:10;6.15;;;3.20;;
12635;SDS011;6383;50.830;7.210;2023-04-20T12:42:39;4.63;;;3.33;;
12635;SDS011;6383;50.830;7.210;2023-04-20T12:45:08;5.80;;;3.55;;
12635;SDS011;6383;50.830;7.210;2023-04-20T12:47:37;3.95;;;3.60;;
12635;SDS011;6383;50.830;7.210;2023-04-20T12:50:07;4.63;;;3.83;;
12635;SDS011;6383;50.830;7.210;2023-04-20T12:52:36;4.05;;;3.70;;
12635;SDS011;6383;50.830;7.210;2023-04-20T12:55:04;4.85;;;3.72;;
12635;SDS011;6383;50.830;7.210;2023-04-20T12:57:33;7.88;;;3.80;;
12635;SDS011;6383;50.830;7.210;2023-04-20T13:00:02;6.10;;;4.03;;
12635;SDS011;6383;50.830;7.210;2023-04-20T13:02:32;3.88;;;3.38;;
12635;SDS011;6383;50.830;7.210;2023-04-20T13:05:01;4.68;;;3.80;;
12635;SDS011;6383;50.830;7.210;2023-04-20T13:07:31;6.35;;;3.65;;
12635;SDS011;6383;50.830;7.210;2023-04-20T13:10:00;5.28;;;4.25;;
12635;SDS011;6383;50.830;7.210;2023-04-20T13:12:28;3.90;;;3.60;;
12635;SDS011;6383;50.830;7.210;2023-04-20T13:14:57;10.40;;;3.60;;
12635;SDS011;6383;50.830;7.210;2023-04-20T13:17:26;4.65;;;3.42;;
12635;SDS011;6383;50.830;7.210;2023-04-20T13:19:54;4.78;;;3.45;;
12635;SDS011;6383;50.830;7.210;2023-04-20T13:22:22;6.63;;;3.63;;
12635;SDS011;6383;50.830;7.210;2023-04-20T13:24:50;4.50;;;3.45;;
12635;SDS011;6383;50.830;7.210;2023-04-20T13:27:19;4.03;;;3.58;;
12635;SDS011;6383;50.830;7.210;2023-04-20T13:29:47;3.88;;;3.50;;
12635;SDS011;6383;50.830;7.210;2023-04-20T13:32:16;4.07;;;3.67;;
12635;SDS011;6383;50.830;7.210;2023-04-20T13:34:46;5.38;;;3.60;;
12635;SDS011;6383;50.830;7.210;2023-04-20T13:37:15;6.95;;;3.50;;
12635;SDS011;6383;50.830;7.210;2023-04-20T13:39:43;6.60;;;3.42;;
12635;SDS011;6383;50.830;7.210;2023-04-20T13:42:11;4.85;;;4.05;;
12635;SDS011;6383;50.830;7.210;2023-04-20T13:44:40;5.80;;;4.20;;
12635;SDS011;6383;50.830;7.210;2023-04-20T13:47:09;3.08;;;2.78;;
12635;SDS011;6383;50.830;7.210;2023-04-20T13:49:38;4.10;;;3.63;;
12635;SDS011;6383;50.830;7.210;2023-04-20T13:52:08;5.43;;;4.07;;
12635;SDS011;6383;50.830;7.210;2023-04-20T13:54:37;4.72;;;3.67;;
12635;SDS011;6383;50.830;7.210;2023-04-20T13:57:07;6.10;;;3.55;;
12635;SDS011;6383;50.830;7.210;2023-04-20T13:59:36;3.80;;;3.50;;
12635;SDS011;6383;50.830;7.210;2023-04-20T14:02:04;4.90;;;4.00;;
12635;SDS011;6383;50.830;7.210;2023-04-20T14:04:33;3.80;;;3.50;;
12635;SDS011;6383;50.830;7.210;2023-04-20T14:07:02;3.90;;;3.60;;
12635;SDS011;6383;50.830;7.210;2023-04-20T14:09:32;4.65;;;3.40;;
12635;SDS011;6383;50.830;7.210;2023-04-20T14:11:59;5.15;;;4.28;;
12635;SDS011;6383;50.830;7.210;2023-04-20T14:14:28;4.32;;;3.60;;
12635;SDS011;6383;50.830;7.210;2023-04-20T14:16:57;3.47;;;3.17;;
12635;SDS011;6383;50.830;7.210;2023-04-20T14:19:26;5.05;;;4.55;;
12635;SDS011;6383;50.830;7.210;2023-04-20T14:21:53;4.07;;;3.67;;
12635;SDS011;6383;50.830;7.210;2023-04-20T14:24:21;4.88;;;3.60;;
12635;SDS011;6383;50.830;7.210;2023-04-20T14:26:51;5.15;;;3.47;;
12635;SDS011;6383;50.830;7.210;2023-04-20T14:29:20;7.43;;;3.22;;
12635;SDS011;6383;50.830;7.210;2023-04-20T14:31:47;3.45;;;3.15;;
12635;SDS011;6383;50.830;7.210;2023-04-20T14:34:16;6.25;;;3.70;;
12635;SDS011;6383;50.830;7.210;2023-04-20T14:36:44;4.25;;;3.75;;
12635;SDS011;6383;50.830;7.210;2023-04-20T14:39:13;5.57;;;3.92;;
12635;SDS011;6383;50.830;7.210;2023-04-20T14:41:42;4.00;;;3.55;;
12635;SDS011;6383;50.830;7.210;2023-04-20T14:44:12;3.55;;;3.25;;
12635;SDS011;6383;50.830;7.210;2023-04-20T14:46:40;3.45;;;3.22;;
12635;SDS011;6383;50.830;7.210;2023-04-20T14:49:10;6.10;;;3.72;;
12635;SDS011;6383;50.830;7.210;2023-04-20T14:51:37;4.07;;;3.05;;
12635;SDS011;6383;50.830;7.210;2023-04-20T14:54:05;5.28;;;3.65;;
12635;SDS011;6383;50.830;7.210;2023-04-20T14:56:33;5.15;;;3.47;;
12635;SDS011;6383;50.830;7.210;2023-04-20T14:59:02;4.03;;;3.63;;
12635;SDS011;6383;50.830;7.210;2023-04-20T15:01:32;4.00;;;3.60;;
12635;SDS011;6383;50.830;7.210;2023-04-20T15:04:02;4.13;;;3.75;;
12635;SDS011;6383;50.830;7.210;2023-04-20T15:06:31;3.92;;;3.60;;
12635;SDS011;6383;50.830;7.210;2023-04-20T15:08:59;4.57;;;4.18;;
12635;SDS011;6383;50.830;7.210;2023-04-20T15:11:28;6.18;;;4.38;;
12635;SDS011;6383;50.830;7.210;2023-04-20T15:13:57;4.05;;;3.65;;
12635;SDS011;6383;50.830;7.210;2023-04-20T15:16:26;5.05;;;3.97;;
12635;SDS011;6383;50.830;7.210;2023-04-20T15:18:56;3.97;;;3.58;;
12635;SDS011;6383;50.830;7.210;2023-04-20T15:21:25;3.58;;;3.28;;
12635;SDS011;6383;50.830;7.210;2023-04-20T15:23:54;5.15;;;3.60;;
12635;SDS011;6383;50.830;7.210;2023-04-20T15:26:23;4.10;;;3.75;;
12635;SDS011;6383;50.830;7.210;2023-04-20T15:28:52;6.13;;;3.78;;